Coila, New York
Current Conditions -  °F | °C
As of 11:54 PM on Sunday 21 Dec 2014 (Local Time) from KDDH Reporting Station
Haze Haze  
Wind Chill: 28°   Ceiling: 1700
Heat Index: 28°   Visibility: 4mi
Dew Point: 25°   Wind: 0mph
Humidity: 88%   Direction: NA
Pressure: 30.33"   Gusts: NA
Location:  43.0594°N, 73.3734°W
Report Text: KDDH 220454Z AUTO 00000KT 4SM BR BKN017 OVC038 M02/M04 A3033 RMK AO2 SLP280 T10221039 410171044
Loading
Personal Weather Stations






























Interactive Weather Map New forecast layout! Learn more

10-Day Weather Forecast

Advertisements
Track Severe Weather on mobile